createdAt,value
2022-10-08T00:00:46.777Z,14.85
2022-10-08T00:03:15.390Z,14.78
2022-10-08T00:05:41.914Z,14.68
2022-10-08T00:08:09.594Z,14.61
2022-10-08T00:10:37.162Z,14.71
2022-10-08T00:13:04.430Z,14.34
2022-10-08T00:15:36.357Z,14.74
2022-10-08T00:18:02.836Z,13.78
2022-10-08T00:20:29.217Z,11.96
2022-10-08T00:22:55.662Z,9.48
2022-10-08T00:25:22.096Z,11.55
2022-10-08T00:27:48.508Z,13.33
2022-10-08T00:30:15.003Z,14.14
2022-10-08T00:32:41.429Z,12.10
2022-10-08T00:35:08.285Z,13.84
2022-10-08T00:37:34.708Z,13.81
2022-10-08T00:40:01.290Z,13.66
2022-10-08T00:42:27.955Z,14.13
2022-10-08T00:44:57.801Z,13.58
2022-10-08T00:47:33.237Z,14.23
2022-10-08T00:50:06.556Z,14.32
2022-10-08T00:52:36.119Z,14.29
2022-10-08T00:55:06.355Z,14.41
2022-10-08T00:57:37.147Z,14.29
2022-10-08T01:00:08.118Z,14.35
2022-10-08T01:02:34.604Z,14.30
2022-10-08T01:05:02.280Z,14.25
2022-10-08T01:07:48.267Z,14.26
2022-10-08T01:10:17.606Z,12.03
2022-10-08T01:12:54.017Z,13.86
2022-10-08T01:15:41.341Z,13.35
2022-10-08T01:18:17.909Z,14.13
2022-10-08T01:20:54.059Z,14.24
2022-10-08T01:24:01.015Z,13.73
2022-10-08T01:26:42.707Z,14.15
2022-10-08T01:29:14.171Z,14.19
2022-10-08T01:32:03.334Z,14.14
2022-10-08T01:34:51.514Z,14.11
2022-10-08T01:37:28.357Z,14.12
2022-10-08T01:39:58.634Z,13.57
2022-10-08T01:42:28.002Z,14.09
2022-10-08T01:44:59.341Z,13.97
2022-10-08T01:47:28.912Z,14.04
2022-10-08T01:49:58.805Z,14.10
2022-10-08T01:52:30.308Z,14.12
2022-10-08T01:55:04.687Z,14.08
2022-10-08T01:57:33.773Z,14.08
2022-10-08T02:00:05.969Z,14.09
2022-10-08T02:02:32.536Z,14.04
2022-10-08T02:04:59.289Z,14.08
2022-10-08T02:07:30.601Z,13.89
2022-10-08T02:10:17.915Z,14.05
2022-10-08T02:12:45.796Z,14.12
2022-10-08T02:15:41.180Z,13.96
2022-10-08T02:18:18.313Z,13.99
2022-10-08T02:20:50.650Z,13.90
2022-10-08T02:23:17.047Z,14.03
2022-10-08T02:25:52.051Z,13.94
2022-10-08T02:28:46.951Z,13.91
2022-10-08T02:31:24.784Z,13.97
2022-10-08T02:34:20.162Z,13.89
2022-10-08T02:36:54.113Z,13.96
2022-10-08T02:39:21.590Z,13.97
2022-10-08T02:41:53.025Z,13.93
2022-10-08T02:44:30.994Z,13.98
2022-10-08T02:47:00.411Z,13.92
2022-10-08T02:49:32.897Z,13.85
2022-10-08T02:52:01.917Z,13.73
2022-10-08T02:54:34.295Z,13.67
2022-10-08T02:57:22.279Z,13.72
2022-10-08T02:59:48.895Z,13.79
2022-10-08T03:02:27.817Z,13.88
2022-10-08T03:05:01.527Z,13.81
2022-10-08T03:07:32.803Z,13.86
2022-10-08T03:10:03.001Z,13.88
2022-10-08T03:12:30.281Z,13.65
2022-10-08T03:14:56.852Z,13.81
2022-10-08T03:17:30.470Z,13.84
2022-10-08T03:19:57.775Z,13.84
2022-10-08T03:22:24.953Z,12.18
2022-10-08T03:24:56.036Z,11.78
2022-10-08T03:27:23.273Z,13.23
2022-10-08T03:29:49.649Z,13.54
2022-10-08T03:32:16.277Z,13.55
2022-10-08T03:34:42.743Z,13.52
2022-10-08T03:37:09.151Z,13.59
2022-10-08T03:39:35.638Z,13.64
2022-10-08T03:42:02.080Z,13.62
2022-10-08T03:44:28.467Z,13.67
2022-10-08T03:46:54.839Z,13.52
2022-10-08T03:49:21.272Z,13.48
2022-10-08T03:51:47.694Z,13.53
2022-10-08T03:54:14.126Z,13.41
2022-10-08T03:56:40.549Z,13.49
2022-10-08T03:59:07.007Z,10.94
2022-10-08T04:01:33.665Z,12.96
2022-10-08T04:04:00.131Z,12.83
2022-10-08T04:06:26.686Z,11.45
2022-10-08T04:08:53.650Z,12.16
2022-10-08T04:11:20.423Z,13.11
2022-10-08T04:13:46.976Z,13.28
2022-10-08T04:16:16.173Z,13.36
2022-10-08T04:18:43.292Z,13.48
2022-10-08T04:21:13.144Z,13.01
2022-10-08T04:23:40.667Z,13.29
2022-10-08T04:26:08.638Z,13.31
2022-10-08T04:28:40.147Z,13.42
2022-10-08T04:31:19.351Z,13.36
2022-10-08T04:33:46.622Z,13.41
2022-10-08T04:36:23.713Z,13.45
2022-10-08T04:38:50.928Z,13.40
2022-10-08T04:41:20.661Z,13.36
2022-10-08T04:43:47.735Z,13.33
2022-10-08T04:46:17.705Z,13.38
2022-10-08T04:48:52.485Z,12.64
2022-10-08T04:51:19.557Z,13.15
2022-10-08T04:53:46.065Z,13.27
2022-10-08T04:56:21.999Z,13.19
2022-10-08T04:58:48.828Z,13.22
2022-10-08T05:01:18.330Z,13.24
2022-10-08T05:03:50.828Z,13.18
2022-10-08T05:06:19.878Z,13.21
2022-10-08T05:08:47.019Z,13.33
2022-10-08T05:11:14.452Z,13.20
2022-10-08T05:13:41.391Z,13.16
2022-10-08T05:16:13.308Z,13.15
2022-10-08T05:18:41.517Z,13.16
2022-10-08T05:21:10.901Z,13.16
2022-10-08T05:23:38.438Z,13.20
2022-10-08T05:26:41.435Z,13.20
2022-10-08T05:29:12.159Z,13.18
2022-10-08T05:31:39.048Z,13.18
2022-10-08T05:34:05.826Z,13.21
2022-10-08T05:36:34.070Z,12.81
2022-10-08T05:39:02.082Z,13.12
2022-10-08T05:41:31.318Z,11.40
2022-10-08T05:43:59.080Z,12.72
2022-10-08T05:46:27.232Z,12.91
2022-10-08T05:48:55.003Z,13.01
2022-10-08T05:51:21.861Z,13.14
2022-10-08T05:53:50.837Z,13.09
2022-10-08T05:56:20.145Z,10.34
2022-10-08T05:58:47.507Z,12.49
2022-10-08T06:01:20.799Z,12.87
2022-10-08T06:03:51.946Z,12.98
2022-10-08T06:06:19.270Z,13.01
2022-10-08T06:08:46.639Z,12.95
2022-10-08T06:11:13.196Z,12.93
2022-10-08T06:13:39.594Z,13.08
2022-10-08T06:16:09.321Z,13.08
2022-10-08T06:18:38.789Z,12.85
2022-10-08T06:21:11.137Z,13.02
2022-10-08T06:23:39.259Z,12.91
2022-10-08T06:26:08.189Z,12.92
2022-10-08T06:28:36.776Z,12.92
2022-10-08T06:31:04.555Z,12.85
2022-10-08T06:33:31.501Z,12.94
2022-10-08T06:36:06.424Z,12.41
2022-10-08T06:38:33.871Z,11.65
2022-10-08T06:41:00.616Z,11.56
2022-10-08T06:43:27.084Z,11.36
2022-10-08T06:45:53.601Z,11.68
2022-10-08T06:48:20.040Z,12.36
2022-10-08T06:50:46.494Z,12.62
2022-10-08T06:53:12.965Z,12.82
2022-10-08T06:55:39.465Z,12.85
2022-10-08T06:58:06.282Z,12.85
2022-10-08T07:00:33.074Z,12.93
2022-10-08T07:02:59.566Z,12.86
2022-10-08T07:05:26.018Z,12.97
2022-10-08T07:07:52.445Z,12.91
2022-10-08T07:10:18.968Z,13.00
2022-10-08T07:12:45.846Z,13.08
2022-10-08T07:15:12.596Z,12.87
2022-10-08T07:17:39.052Z,13.17
2022-10-08T07:20:06.166Z,12.77
2022-10-08T07:22:32.678Z,13.05
2022-10-08T07:24:59.193Z,13.00
2022-10-08T07:27:25.573Z,13.00
2022-10-08T07:29:52.047Z,12.94
2022-10-08T07:32:18.486Z,13.75
2022-10-08T07:34:44.904Z,13.34
2022-10-08T07:37:11.375Z,13.42
2022-10-08T07:39:37.824Z,13.58
2022-10-08T07:42:04.312Z,13.67
2022-10-08T07:44:30.820Z,13.28
2022-10-08T07:46:57.278Z,13.15
2022-10-08T07:49:23.730Z,13.47
2022-10-08T07:51:50.286Z,13.37
2022-10-08T07:54:18.908Z,13.16
2022-10-08T07:56:45.921Z,13.04
2022-10-08T07:59:15.052Z,13.60
2022-10-08T08:01:42.542Z,13.15
2022-10-08T08:04:10.550Z,13.23
2022-10-08T08:06:48.124Z,13.60
2022-10-08T08:09:16.052Z,14.35
2022-10-08T08:11:42.536Z,14.79
2022-10-08T08:14:09.017Z,13.85
2022-10-08T08:16:35.886Z,14.34
2022-10-08T08:19:03.169Z,14.49
2022-10-08T08:21:32.391Z,14.60
2022-10-08T08:24:04.543Z,14.40
2022-10-08T08:26:33.281Z,14.29
2022-10-08T08:29:26.116Z,14.43
2022-10-08T08:31:52.516Z,14.32
2022-10-08T08:34:22.179Z,14.56
2022-10-08T08:36:49.310Z,14.66
2022-10-08T08:39:23.927Z,15.19
2022-10-08T08:42:12.150Z,15.32
2022-10-08T08:44:44.267Z,15.37
2022-10-08T08:47:24.525Z,16.01
2022-10-08T08:49:54.696Z,16.61
2022-10-08T08:52:28.772Z,18.11
2022-10-08T08:54:55.549Z,17.32
2022-10-08T08:57:36.620Z,16.96
2022-10-08T09:00:19.176Z,16.65
2022-10-08T09:02:55.689Z,16.69
2022-10-08T09:05:25.281Z,14.76
2022-10-08T09:07:56.675Z,15.82
2022-10-08T09:10:34.406Z,17.06
2022-10-08T09:13:02.101Z,16.52
2022-10-08T09:15:37.790Z,14.41
2022-10-08T09:18:04.907Z,16.50
2022-10-08T09:20:31.812Z,16.10
2022-10-08T09:22:59.097Z,16.32
2022-10-08T09:25:31.155Z,15.76
2022-10-08T09:28:06.070Z,14.67
2022-10-08T09:30:37.303Z,14.10
2022-10-08T09:33:18.475Z,14.06
2022-10-08T09:35:53.264Z,14.14
2022-10-08T09:38:28.786Z,14.40
2022-10-08T09:41:17.706Z,14.16
2022-10-08T09:43:45.600Z,14.21
2022-10-08T09:46:30.199Z,14.11
2022-10-08T09:48:57.272Z,13.97
2022-10-08T09:51:24.188Z,14.10
2022-10-08T09:54:00.286Z,14.11
2022-10-08T09:56:30.677Z,14.07
2022-10-08T09:59:03.153Z,14.13
2022-10-08T10:01:31.596Z,14.48
2022-10-08T10:04:01.951Z,16.58
2022-10-08T10:06:37.183Z,16.48
2022-10-08T10:09:26.860Z,15.37
2022-10-08T10:11:59.279Z,15.01
2022-10-08T10:14:32.873Z,17.59
2022-10-08T10:17:03.890Z,17.49
2022-10-08T10:19:45.570Z,18.65
2022-10-08T10:22:29.632Z,18.30
2022-10-08T10:25:18.245Z,17.54
2022-10-08T10:27:58.283Z,16.90
2022-10-08T10:30:25.562Z,19.35
2022-10-08T10:33:10.751Z,19.72
2022-10-08T10:36:01.613Z,18.24
2022-10-08T10:38:30.582Z,18.66
2022-10-08T10:41:11.486Z,18.34
2022-10-08T10:43:57.715Z,16.03
2022-10-08T10:46:41.832Z,15.34
2022-10-08T10:49:17.558Z,15.36
2022-10-08T10:52:02.865Z,15.20
2022-10-08T10:54:29.357Z,15.16
2022-10-08T10:57:01.013Z,15.08
2022-10-08T10:59:44.812Z,15.09
2022-10-08T11:02:30.977Z,16.92
2022-10-08T11:05:11.901Z,17.71
2022-10-08T11:08:16.812Z,17.76
2022-10-08T11:11:20.911Z,17.60
2022-10-08T11:14:00.822Z,18.00
2022-10-08T11:16:54.451Z,17.63
2022-10-08T11:19:36.141Z,18.15
2022-10-08T11:22:14.792Z,17.92
2022-10-08T11:24:55.294Z,18.22
2022-10-08T11:27:36.799Z,18.35
2022-10-08T11:30:14.302Z,18.07
2022-10-08T11:32:50.540Z,18.11
2022-10-08T11:35:34.622Z,17.98
2022-10-08T11:38:11.585Z,17.49
2022-10-08T11:41:02.719Z,16.26
2022-10-08T11:43:43.291Z,15.79
2022-10-08T11:46:31.376Z,17.07
2022-10-08T11:49:03.087Z,15.83
2022-10-08T11:51:32.901Z,16.51
2022-10-08T11:54:14.593Z,17.25
2022-10-08T11:56:50.068Z,16.85
2022-10-08T11:59:36.580Z,16.26
2022-10-08T12:02:07.426Z,16.33
2022-10-08T12:04:36.632Z,15.59
2022-10-08T12:07:19.107Z,15.47
2022-10-08T12:10:07.949Z,15.78
2022-10-08T12:12:49.754Z,16.24
2022-10-08T12:15:25.391Z,15.63
2022-10-08T12:17:57.770Z,15.63
2022-10-08T12:20:29.051Z,15.49
2022-10-08T12:23:00.212Z,15.75
2022-10-08T12:25:40.878Z,16.12
2022-10-08T12:28:19.603Z,16.80
2022-10-08T12:30:50.198Z,16.49
2022-10-08T12:33:17.259Z,16.34
2022-10-08T12:35:52.581Z,15.88
2022-10-08T12:38:40.531Z,15.82
2022-10-08T12:41:29.913Z,15.77
2022-10-08T12:44:07.840Z,15.63
2022-10-08T12:46:44.986Z,15.44
2022-10-08T12:49:38.413Z,15.35
2022-10-08T12:52:11.334Z,15.33
2022-10-08T12:54:45.321Z,15.87
2022-10-08T12:57:13.685Z,16.11
2022-10-08T12:59:41.792Z,16.10
2022-10-08T13:02:28.615Z,15.81
2022-10-08T13:04:55.045Z,15.48
2022-10-08T13:07:28.314Z,15.76
2022-10-08T13:09:57.501Z,15.52
2022-10-08T13:12:24.099Z,15.75
2022-10-08T13:15:08.665Z,15.93
2022-10-08T13:17:36.906Z,16.08
2022-10-08T13:20:16.832Z,15.95
2022-10-08T13:22:43.904Z,15.48
2022-10-08T13:25:33.581Z,15.53
2022-10-08T13:28:12.674Z,15.51
2022-10-08T13:30:39.418Z,15.42
2022-10-08T13:33:16.287Z,15.52
2022-10-08T13:35:43.852Z,15.67
2022-10-08T13:38:19.508Z,16.27
2022-10-08T13:41:03.888Z,16.23
2022-10-08T13:43:30.975Z,16.23
2022-10-08T13:45:57.357Z,15.87
2022-10-08T13:48:24.106Z,15.69
2022-10-08T13:50:52.159Z,15.87
2022-10-08T13:53:22.109Z,15.66
2022-10-08T13:55:50.183Z,15.52
2022-10-08T13:58:19.210Z,15.62
2022-10-08T14:00:47.414Z,15.60
2022-10-08T14:03:14.577Z,15.57
2022-10-08T14:05:45.332Z,15.62
2022-10-08T14:08:19.688Z,15.63
2022-10-08T14:10:46.151Z,15.64
2022-10-08T14:13:15.033Z,15.68
2022-10-08T14:15:42.424Z,15.59
2022-10-08T14:18:08.958Z,15.70
2022-10-08T14:20:37.132Z,15.75
2022-10-08T14:23:03.884Z,15.76
2022-10-08T14:25:31.057Z,15.72
2022-10-08T14:28:01.115Z,15.65
2022-10-08T14:30:28.361Z,15.62
2022-10-08T14:32:55.505Z,15.74
2022-10-08T14:35:22.132Z,15.79
2022-10-08T14:37:48.995Z,15.80
2022-10-08T14:40:20.312Z,15.83
2022-10-08T14:42:47.639Z,15.87
2022-10-08T14:45:14.449Z,15.87
2022-10-08T14:47:40.962Z,15.88
2022-10-08T14:50:08.587Z,15.90
2022-10-08T14:52:41.729Z,15.92
2022-10-08T14:55:10.573Z,15.90
2022-10-08T14:57:37.001Z,15.85
2022-10-08T15:00:04.879Z,15.91
2022-10-08T15:02:31.708Z,15.54
2022-10-08T15:04:58.209Z,15.73
2022-10-08T15:07:24.777Z,15.78
2022-10-08T15:09:51.428Z,15.92
2022-10-08T15:12:17.896Z,16.01
2022-10-08T15:14:44.372Z,16.00
2022-10-08T15:17:10.852Z,15.84
2022-10-08T15:19:37.387Z,16.01
2022-10-08T15:22:03.956Z,16.06
2022-10-08T15:24:30.440Z,16.05
2022-10-08T15:26:56.847Z,16.02
2022-10-08T15:29:23.351Z,16.02
2022-10-08T15:31:50.948Z,16.04
2022-10-08T15:34:19.366Z,15.98
2022-10-08T15:36:46.008Z,15.97
2022-10-08T15:39:15.025Z,15.99
2022-10-08T15:41:43.781Z,16.00
2022-10-08T15:44:13.459Z,16.02
2022-10-08T15:46:40.027Z,16.00
2022-10-08T15:49:06.644Z,16.01
2022-10-08T15:51:33.760Z,15.82
2022-10-08T15:54:01.085Z,15.50
2022-10-08T15:56:27.602Z,15.30
2022-10-08T15:58:54.195Z,14.91
2022-10-08T16:01:23.317Z,15.55
2022-10-08T16:03:52.914Z,15.89
2022-10-08T16:06:23.536Z,15.87
2022-10-08T16:08:50.583Z,15.85
2022-10-08T16:11:22.740Z,16.06
2022-10-08T16:14:04.147Z,16.04
2022-10-08T16:16:30.799Z,16.09
2022-10-08T16:18:59.780Z,16.08
2022-10-08T16:21:28.495Z,16.07
2022-10-08T16:23:56.257Z,16.09
2022-10-08T16:26:23.519Z,16.01
2022-10-08T16:28:55.048Z,16.08
2022-10-08T16:31:21.987Z,16.06
2022-10-08T16:33:48.725Z,15.61
2022-10-08T16:36:15.236Z,14.64
2022-10-08T16:38:41.976Z,15.75
2022-10-08T16:41:18.376Z,16.00
2022-10-08T16:43:47.104Z,16.11
2022-10-08T16:46:15.842Z,15.98
2022-10-08T16:48:42.624Z,16.04
2022-10-08T16:51:09.834Z,16.06
2022-10-08T16:53:36.272Z,15.98
2022-10-08T16:56:04.835Z,16.07
2022-10-08T16:58:31.419Z,15.95
2022-10-08T17:00:57.996Z,15.44
2022-10-08T17:03:24.628Z,15.08
2022-10-08T17:05:51.113Z,15.48
2022-10-08T17:08:17.524Z,15.82
2022-10-08T17:10:43.926Z,15.82
2022-10-08T17:13:10.348Z,16.12
2022-10-08T17:15:36.782Z,16.10
2022-10-08T17:18:03.323Z,16.08
2022-10-08T17:20:29.813Z,16.10
2022-10-08T17:22:56.311Z,16.13
2022-10-08T17:25:22.696Z,16.16
2022-10-08T17:27:49.192Z,16.13
2022-10-08T17:30:15.860Z,16.10
2022-10-08T17:32:42.443Z,16.09
2022-10-08T17:35:08.981Z,15.75
2022-10-08T17:37:35.413Z,14.49
2022-10-08T17:40:01.924Z,15.75
2022-10-08T17:42:28.399Z,15.93
2022-10-08T17:44:54.817Z,16.01
2022-10-08T17:47:23.630Z,15.92
2022-10-08T17:49:52.176Z,16.03
2022-10-08T17:52:18.683Z,15.97
2022-10-08T17:54:45.109Z,16.05
2022-10-08T17:57:11.521Z,16.08
2022-10-08T17:59:37.930Z,16.04
2022-10-08T18:02:04.639Z,15.32
2022-10-08T18:04:31.153Z,14.21
2022-10-08T18:07:02.474Z,13.40
2022-10-08T18:09:29.896Z,13.27
2022-10-08T18:11:56.343Z,14.56
2022-10-08T18:14:23.242Z,15.54
2022-10-08T18:16:50.571Z,15.72
2022-10-08T18:19:18.303Z,15.78
2022-10-08T18:21:45.339Z,15.81
2022-10-08T18:24:11.785Z,15.80
2022-10-08T18:26:38.581Z,15.82
2022-10-08T18:29:10.219Z,15.84
2022-10-08T18:31:38.309Z,15.82
2022-10-08T18:34:16.907Z,15.81
2022-10-08T18:36:43.881Z,15.84
2022-10-08T18:39:15.614Z,15.85
2022-10-08T18:41:47.816Z,15.87
2022-10-08T18:44:17.647Z,14.51
2022-10-08T18:46:45.048Z,13.54
2022-10-08T18:49:18.051Z,15.21
2022-10-08T18:51:45.166Z,15.63
2022-10-08T18:54:12.573Z,15.73
2022-10-08T18:56:41.093Z,15.76
2022-10-08T18:59:11.382Z,15.80
2022-10-08T19:01:40.183Z,15.79
2022-10-08T19:04:09.140Z,15.78
2022-10-08T19:06:37.907Z,15.79
2022-10-08T19:09:06.120Z,15.80
2022-10-08T19:11:39.545Z,15.80
2022-10-08T19:14:12.013Z,15.78
2022-10-08T19:16:39.820Z,15.77
2022-10-08T19:19:09.657Z,15.68
2022-10-08T19:21:38.620Z,15.76
2022-10-08T19:24:07.173Z,15.75
2022-10-08T19:26:33.909Z,15.77
2022-10-08T19:29:00.676Z,15.76
2022-10-08T19:31:29.474Z,15.76
2022-10-08T19:34:06.990Z,15.67
2022-10-08T19:36:36.315Z,15.71
2022-10-08T19:39:06.456Z,15.70
2022-10-08T19:41:33.307Z,15.76
2022-10-08T19:44:00.097Z,15.75
2022-10-08T19:46:27.913Z,15.64
2022-10-08T19:48:57.350Z,15.65
2022-10-08T19:51:24.176Z,15.78
2022-10-08T19:53:51.044Z,14.36
2022-10-08T19:56:19.028Z,14.91
2022-10-08T19:58:48.755Z,15.53
2022-10-08T20:01:22.049Z,15.61
2022-10-08T20:03:49.118Z,15.40
2022-10-08T20:06:23.286Z,15.40
2022-10-08T20:08:52.120Z,15.54
2022-10-08T20:11:19.682Z,15.69
2022-10-08T20:13:47.552Z,15.62
2022-10-08T20:16:19.899Z,15.70
2022-10-08T20:18:53.027Z,15.69
2022-10-08T20:21:20.522Z,15.64
2022-10-08T20:23:47.438Z,15.63
2022-10-08T20:26:20.883Z,15.64
2022-10-08T20:28:50.306Z,15.63
2022-10-08T20:31:18.123Z,15.64
2022-10-08T20:33:45.381Z,15.69
2022-10-08T20:36:14.315Z,15.65
2022-10-08T20:38:41.686Z,15.70
2022-10-08T20:41:09.375Z,15.17
2022-10-08T20:43:37.584Z,15.44
2022-10-08T20:46:08.951Z,15.57
2022-10-08T20:48:36.950Z,14.99
2022-10-08T20:51:09.363Z,12.89
2022-10-08T20:53:36.474Z,12.67
2022-10-08T20:56:12.524Z,14.76
2022-10-08T20:58:39.512Z,15.17
2022-10-08T21:01:15.038Z,14.71
2022-10-08T21:03:45.977Z,14.30
2022-10-08T21:06:15.047Z,12.20
2022-10-08T21:08:44.089Z,14.17
2022-10-08T21:11:13.420Z,15.20
2022-10-08T21:13:40.290Z,15.33
2022-10-08T21:16:31.636Z,15.32
2022-10-08T21:19:04.204Z,15.32
2022-10-08T21:21:32.537Z,15.26
2022-10-08T21:23:59.967Z,15.35
2022-10-08T21:26:32.009Z,15.37
2022-10-08T21:29:01.162Z,15.38
2022-10-08T21:31:29.298Z,15.38
2022-10-08T21:33:57.910Z,15.25
2022-10-08T21:36:30.609Z,15.31
2022-10-08T21:38:59.286Z,15.35
2022-10-08T21:41:29.456Z,15.35
2022-10-08T21:43:58.324Z,14.92
2022-10-08T21:46:28.249Z,15.12
2022-10-08T21:48:56.372Z,15.31
2022-10-08T21:51:23.567Z,14.57
2022-10-08T21:53:52.770Z,15.17
2022-10-08T21:56:21.045Z,15.16
2022-10-08T21:58:50.091Z,15.29
2022-10-08T22:01:23.323Z,15.31
2022-10-08T22:03:53.856Z,15.32
2022-10-08T22:06:20.266Z,15.22
2022-10-08T22:08:46.834Z,15.29
2022-10-08T22:11:13.299Z,15.27
2022-10-08T22:13:39.748Z,15.28
2022-10-08T22:16:08.478Z,15.27
2022-10-08T22:18:35.786Z,15.27
2022-10-08T22:21:04.519Z,15.27
2022-10-08T22:23:31.221Z,15.24
2022-10-08T22:26:00.236Z,15.30
2022-10-08T22:28:28.057Z,15.26
2022-10-08T22:30:54.992Z,15.29
2022-10-08T22:33:21.527Z,15.29
2022-10-08T22:35:48.036Z,15.30
2022-10-08T22:38:14.538Z,15.29
2022-10-08T22:40:40.954Z,15.24
2022-10-08T22:43:07.495Z,15.29
2022-10-08T22:45:38.697Z,15.29
2022-10-08T22:48:05.581Z,15.22
2022-10-08T22:50:35.325Z,15.20
2022-10-08T22:53:02.119Z,15.14
2022-10-08T22:55:29.484Z,15.10
2022-10-08T22:57:56.476Z,15.22
2022-10-08T23:00:23.010Z,15.24
2022-10-08T23:02:49.727Z,15.20
2022-10-08T23:05:16.627Z,15.21
2022-10-08T23:07:43.074Z,15.22
2022-10-08T23:10:09.548Z,15.18
2022-10-08T23:12:35.998Z,15.22
2022-10-08T23:15:02.412Z,15.21
2022-10-08T23:17:28.907Z,15.26
2022-10-08T23:19:55.293Z,15.13
2022-10-08T23:22:21.820Z,15.13
2022-10-08T23:24:48.227Z,15.05
2022-10-08T23:27:14.680Z,15.00
2022-10-08T23:29:41.149Z,15.08
2022-10-08T23:32:07.674Z,15.07
2022-10-08T23:34:34.113Z,15.10
2022-10-08T23:37:00.592Z,15.10
2022-10-08T23:39:27.010Z,15.11
2022-10-08T23:41:53.402Z,15.10
2022-10-08T23:44:20.075Z,15.07
2022-10-08T23:46:46.512Z,15.09
2022-10-08T23:49:13.079Z,15.11
2022-10-08T23:51:39.475Z,15.10
2022-10-08T23:54:05.924Z,15.12
2022-10-08T23:56:32.395Z,15.12
2022-10-08T23:58:59.358Z,15.10
